Time;durP1;ratioP1;P1;durP2;ratioP2;P2;SDS_P1;SDS_P2;PMS_P1;PMS_P2;Temp;Humidity;BMP_temperature;BMP_pressure;BME280_temperature;BME280_humidity;BME280_pressure;Samples;Min_cycle;Max_cycle;Signal;HPM_P1;HPM_P2
2023/08/21 00:01:01;;;;;;;7.63;6.90;;;;;;;23.77;100.00;100693.41;4989577;28;20221;-77
2023/08/21 00:03:26;;;;;;;6.33;5.70;;;;;;;23.75;100.00;100701.41;4982270;28;20190;-77
2023/08/21 00:05:52;;;;;;;6.67;6.17;;;;;;;23.74;100.00;100703.22;4990315;28;20200;-77
2023/08/21 00:08:17;;;;;;;6.20;5.80;;;;;;;23.71;100.00;100700.75;4979603;28;20239;-77
2023/08/21 00:10:42;;;;;;;6.57;6.03;;;;;;;23.70;100.00;100695.56;4980878;28;20232;-76
2023/08/21 00:13:08;;;;;;;6.50;6.00;;;;;;;23.67;100.00;100701.88;4986629;28;20263;-76
2023/08/21 00:15:33;;;;;;;6.53;6.03;;;;;;;23.66;100.00;100699.31;4990235;28;20205;-76
2023/08/21 00:18:00;;;;;;;6.63;6.03;;;;;;;23.60;100.00;100701.38;4978498;28;20340;-76
2023/08/21 00:20:26;;;;;;;7.23;6.33;;;;;;;23.57;100.00;100695.41;4987155;28;20191;-76
2023/08/21 00:22:51;;;;;;;6.80;6.20;;;;;;;23.54;100.00;100703.50;4986748;28;20644;-76
2023/08/21 00:25:16;;;;;;;6.17;5.67;;;;;;;23.50;100.00;100700.19;4989392;28;20217;-76
2023/08/21 00:27:42;;;;;;;6.07;5.67;;;;;;;23.49;100.00;100690.56;4986580;28;20184;-76
2023/08/21 00:30:08;;;;;;;6.47;6.07;;;;;;;23.46;100.00;100687.25;4983487;28;20268;-75
2023/08/21 00:32:33;;;;;;;7.17;6.57;;;;;;;23.43;100.00;100686.50;4981591;28;20193;-76
2023/08/21 00:34:58;;;;;;;6.90;6.20;;;;;;;23.46;100.00;100689.91;4978175;28;20241;-76
2023/08/21 00:37:24;;;;;;;6.77;6.23;;;;;;;23.46;100.00;100689.91;4979775;28;20209;-76
2023/08/21 00:39:49;;;;;;;7.50;6.83;;;;;;;23.43;100.00;100686.50;4985976;28;20212;-76
2023/08/21 00:42:14;;;;;;;6.90;6.30;;;;;;;23.40;100.00;100680.53;4985815;28;20280;-76
2023/08/21 00:44:39;;;;;;;6.27;5.77;;;;;;;23.36;100.00;100679.88;4977467;28;20299;-76
2023/08/21 00:47:05;;;;;;;6.70;6.07;;;;;;;23.34;100.00;100681.75;4995339;28;20930;-76
2023/08/21 00:49:31;;;;;;;6.53;5.93;;;;;;;23.32;100.00;100682.75;4985607;28;20192;-76
2023/08/21 00:51:56;;;;;;;7.03;6.33;;;;;;;23.27;100.00;100675.97;4991551;28;20204;-76
2023/08/21 00:54:22;;;;;;;6.87;6.27;;;;;;;23.25;100.00;100671.69;4982329;28;20749;-76
2023/08/21 00:56:47;;;;;;;6.43;5.93;;;;;;;23.22;100.00;100672.72;4978998;28;20300;-76
2023/08/21 00:59:13;;;;;;;5.97;5.57;;;;;;;23.21;100.00;100680.72;4992346;28;20197;-76
2023/08/21 01:01:39;;;;;;;6.80;6.20;;;;;;;23.19;100.00;100678.13;4979103;28;20194;-76
2023/08/21 01:04:04;;;;;;;7.50;6.90;;;;;;;23.15;100.00;100679.22;4979064;28;20184;-75
2023/08/21 01:06:30;;;;;;;7.27;6.67;;;;;;;23.10;100.00;100676.00;4979211;28;20314;-75
2023/08/21 01:09:07;;;;;;;6.23;5.83;;;;;;;23.07;100.00;100679.66;4983891;28;20227;-75
2023/08/21 01:11:48;;;;;;;7.30;6.70;;;;;;;23.05;100.00;100692.09;4974741;28;20189;-76
2023/08/21 01:14:33;;;;;;;7.37;6.67;;;;;;;23.02;100.00;100691.41;4983498;28;20713;-75
2023/08/21 01:17:03;;;;;;;6.73;6.23;;;;;;;22.96;100.00;100687.31;4968806;28;20212;-75
2023/08/21 01:19:37;;;;;;;7.37;6.67;;;;;;;22.93;100.00;100692.75;4977848;28;20181;-76
2023/08/21 01:22:03;;;;;;;7.67;7.07;;;;;;;22.88;100.00;100692.16;4985008;28;20199;-75
2023/08/21 01:24:28;;;;;;;7.07;6.47;;;;;;;22.83;100.00;100693.25;4973454;28;20193;-76
2023/08/21 01:26:54;;;;;;;7.37;6.47;;;;;;;22.81;100.00;100699.56;4991709;28;20805;-76
2023/08/21 01:29:19;;;;;;;7.13;6.53;;;;;;;22.77;100.00;100695.38;4977062;28;20255;-76
2023/08/21 01:31:52;;;;;;;7.03;6.53;;;;;;;22.76;100.00;100698.97;4983116;28;20617;-76
2023/08/21 01:34:18;;;;;;;7.47;6.77;;;;;;;22.75;100.00;100698.13;5006850;28;20212;-76
2023/08/21 01:36:45;;;;;;;7.23;6.73;;;;;;;22.77;100.00;100706.78;4989176;28;20248;-76
2023/08/21 01:39:10;;;;;;;8.27;7.57;;;;;;;22.78;100.00;100710.28;4984761;28;20185;-76
2023/08/21 01:41:35;;;;;;;7.70;7.00;;;;;;;22.79;100.00;100712.81;4984169;28;20268;-76
2023/08/21 01:44:01;;;;;;;7.20;6.60;;;;;;;22.76;100.00;100706.88;4998572;28;20599;-76
2023/08/21 01:46:26;;;;;;;7.23;6.63;;;;;;;22.74;100.00;100708.72;4983485;28;20720;-76
2023/08/21 01:48:51;;;;;;;7.03;6.37;;;;;;;22.72;100.00;100707.97;4983188;28;20276;-76
2023/08/21 01:51:17;;;;;;;7.20;6.57;;;;;;;22.68;100.00;100700.22;4981839;28;20194;-76
2023/08/21 01:53:42;;;;;;;7.63;6.93;;;;;;;22.68;100.00;100699.38;4975386;28;20189;-76
2023/08/21 01:56:07;;;;;;;6.93;6.43;;;;;;;22.67;100.00;100697.66;4979987;28;20231;-74
2023/08/21 01:58:32;;;;;;;7.60;6.90;;;;;;;22.67;100.00;100697.66;4979587;28;20263;-75
2023/08/21 02:00:58;;;;;;;7.17;6.67;;;;;;;22.66;100.00;100690.69;4989638;28;20272;-77
2023/08/21 02:03:25;;;;;;;6.67;6.17;;;;;;;22.66;100.00;100698.59;4993930;28;20196;-76
2023/08/21 02:05:50;;;;;;;7.13;6.53;;;;;;;22.67;100.00;100698.53;4983289;28;20998;-76
2023/08/21 02:08:17;;;;;;;7.10;6.50;;;;;;;22.67;100.00;100703.81;4986803;28;20734;-76
2023/08/21 02:10:52;;;;;;;7.40;6.80;;;;;;;22.65;100.00;100700.38;4994325;28;20201;-76
2023/08/21 02:13:18;;;;;;;7.63;6.87;;;;;;;22.62;100.00;100702.31;4982832;28;20200;-76
2023/08/21 02:15:44;;;;;;;6.53;6.03;;;;;;;22.60;100.00;100706.84;4981138;28;20202;-76
2023/08/21 02:18:09;;;;;;;7.50;6.80;;;;;;;22.57;100.00;100704.38;4979109;28;20213;-76
2023/08/21 02:20:34;;;;;;;6.97;6.37;;;;;;;22.53;100.00;100707.16;4980202;28;20248;-77
2023/08/21 02:23:00;;;;;;;7.37;6.77;;;;;;;22.51;100.00;100708.19;4999141;28;20185;-76
2023/08/21 02:25:25;;;;;;;7.23;6.63;;;;;;;22.48;100.00;100701.25;4980525;28;20204;-76
2023/08/21 02:27:50;;;;;;;7.33;6.73;;;;;;;22.46;100.00;100702.28;4988193;28;20264;-78
2023/08/21 02:30:16;;;;;;;7.17;6.47;;;;;;;22.45;100.00;100703.22;4978295;28;20263;-76
2023/08/21 02:32:41;;;;;;;7.53;6.93;;;;;;;22.43;100.00;100711.22;4986604;28;20624;-76
2023/08/21 02:35:08;;;;;;;7.03;6.53;;;;;;;22.42;100.00;100706.88;4989052;28;20599;-77
2023/08/21 02:37:34;;;;;;;7.40;6.70;;;;;;;22.38;100.00;100707.94;4992715;28;20288;-76
2023/08/21 02:39:59;;;;;;;6.97;6.43;;;;;;;22.35;100.00;100713.34;4988427;28;20216;-76
2023/08/21 02:42:25;;;;;;;7.30;6.80;;;;;;;22.33;100.00;100715.22;4979489;28;20216;-78
2023/08/21 02:44:50;;;;;;;6.70;6.10;;;;;;;22.29;100.00;100714.53;4978383;28;20636;-76
2023/08/21 02:47:16;;;;;;;7.03;6.43;;;;;;;22.27;100.00;100731.38;4996054;28;20192;-76
2023/08/21 02:49:41;;;;;;;7.60;7.00;;;;;;;22.24;100.00;100724.44;4977982;28;20189;-76
2023/08/21 02:52:06;;;;;;;7.00;6.30;;;;;;;22.22;100.00;100726.34;4987045;28;20248;-76
2023/08/21 02:54:32;;;;;;;6.80;6.30;;;;;;;22.19;100.00;100727.31;4988588;28;20576;-76
2023/08/21 02:56:57;;;;;;;7.00;6.40;;;;;;;22.18;100.00;100732.69;4984559;28;20209;-76
2023/08/21 02:59:22;;;;;;;6.57;6.07;;;;;;;22.16;100.00;100731.91;4975081;28;20284;-75
2023/08/21 03:01:48;;;;;;;6.47;5.87;;;;;;;22.15;100.00;100730.19;4979282;28;20198;-75
2023/08/21 03:04:13;;;;;;;7.87;7.27;;;;;;;22.16;100.00;100734.53;4971765;28;20741;-76
2023/08/21 03:06:38;;;;;;;6.63;6.20;;;;;;;22.15;100.00;100715.25;4976083;28;20228;-77
2023/08/21 03:09:03;;;;;;;6.33;5.93;;;;;;;22.16;100.00;100716.09;4988282;28;20319;-76
2023/08/21 03:11:29;;;;;;;6.87;6.27;;;;;;;22.17;100.00;100723.06;4985001;28;20190;-77
2023/08/21 03:13:54;;;;;;;7.13;6.50;;;;;;;22.15;100.00;100712.63;4986241;28;20199;-75
2023/08/21 03:16:19;;;;;;;6.80;6.30;;;;;;;22.14;100.00;100713.53;4968584;28;20238;-76
2023/08/21 03:18:56;;;;;;;6.93;6.40;;;;;;;22.12;100.00;100720.66;4980718;28;20196;-76
2023/08/21 03:21:23;;;;;;;7.10;6.60;;;;;;;22.11;100.00;100720.72;4978531;28;20190;-75
2023/08/21 03:23:50;;;;;;;6.63;6.10;;;;;;;22.08;100.00;100714.69;4979116;28;20275;-75
2023/08/21 03:26:16;;;;;;;6.43;5.93;;;;;;;22.06;100.00;100718.34;4971890;28;20217;-76
2023/08/21 03:28:41;;;;;;;7.00;6.50;;;;;;;22.06;100.00;100728.88;4984078;28;20354;-76
2023/08/21 03:31:07;;;;;;;6.27;5.87;;;;;;;22.04;100.00;100718.41;4981524;28;20185;-77
2023/08/21 03:33:32;;;;;;;6.40;5.97;;;;;;;22.04;100.00;100718.41;4988167;28;20185;-75
2023/08/21 03:35:57;;;;;;;7.03;6.40;;;;;;;22.03;100.00;100721.97;4988170;28;20220;-75
2023/08/21 03:38:22;;;;;;;6.63;6.13;;;;;;;22.04;100.00;100714.91;4978160;28;20337;-75
2023/08/21 03:40:48;;;;;;;6.87;6.37;;;;;;;22.03;100.00;100714.06;4988127;28;20185;-77
2023/08/21 03:43:13;;;;;;;6.77;6.27;;;;;;;22.02;100.00;100715.00;4978024;28;20190;-76
2023/08/21 03:45:38;;;;;;;7.13;6.63;;;;;;;22.01;100.00;100730.88;4981902;28;20210;-76
2023/08/21 03:48:04;;;;;;;6.83;6.33;;;;;;;22.00;100.00;100716.03;4981564;28;20192;-76
2023/08/21 03:50:29;;;;;;;6.87;6.37;;;;;;;21.98;100.00;100716.06;4995763;28;20968;-76
2023/08/21 03:52:54;;;;;;;6.97;6.37;;;;;;;21.99;100.00;100716.94;4978170;28;20200;-76
2023/08/21 03:55:20;;;;;;;6.50;5.93;;;;;;;21.99;100.00;100717.78;4994889;28;20201;-75
2023/08/21 03:57:45;;;;;;;7.17;6.57;;;;;;;21.99;100.00;100727.50;4995290;28;20205;-76
2023/08/21 04:00:11;;;;;;;6.23;5.73;;;;;;;22.00;100.00;100731.84;4979776;28;20199;-75
2023/08/21 04:02:37;;;;;;;7.30;6.60;;;;;;;21.97;100.00;100727.53;4988944;28;20201;-74
2023/08/21 04:05:02;;;;;;;6.67;5.97;;;;;;;21.97;100.00;100727.53;4987159;28;20228;-75
2023/08/21 04:07:28;;;;;;;7.37;6.70;;;;;;;21.96;100.00;100735.53;4981022;28;20185;-76
2023/08/21 04:09:53;;;;;;;6.83;6.17;;;;;;;21.95;100.00;100732.03;4980828;28;20193;-77
2023/08/21 04:12:18;;;;;;;6.10;5.50;;;;;;;21.92;100.00;100729.56;4998243;28;20182;-77
2023/08/21 04:14:43;;;;;;;6.43;5.93;;;;;;;21.90;100.00;100732.28;4982443;28;20970;-76
2023/08/21 04:17:09;;;;;;;6.60;6.00;;;;;;;21.89;100.00;100735.00;4984558;28;20296;-77
2023/08/21 04:19:34;;;;;;;6.43;5.93;;;;;;;21.89;100.00;100729.72;4995783;28;20188;-76
2023/08/21 04:21:59;;;;;;;6.67;6.17;;;;;;;21.87;100.00;100734.22;5002157;28;20185;-76
2023/08/21 04:24:25;;;;;;;6.57;6.07;;;;;;;21.83;100.00;100730.00;4998987;28;20184;-76
2023/08/21 04:26:50;;;;;;;7.13;6.63;;;;;;;21.80;100.00;100733.66;4987236;28;20692;-76
2023/08/21 04:29:15;;;;;;;6.80;6.30;;;;;;;21.78;100.00;100727.63;4977953;28;20186;-75
2023/08/21 04:31:40;;;;;;;7.37;6.67;;;;;;;21.75;100.00;100728.63;4983282;28;20295;-76
2023/08/21 04:34:06;;;;;;;6.83;6.23;;;;;;;21.75;100.00;100736.53;4992421;28;20247;-76
2023/08/21 04:36:31;;;;;;;6.30;5.80;;;;;;;21.74;100.00;100737.44;4981249;28;20324;-76
2023/08/21 04:38:56;;;;;;;6.33;5.83;;;;;;;21.75;100.00;100733.91;4994669;28;20277;-76
2023/08/21 04:41:22;;;;;;;6.53;6.00;;;;;;;21.77;100.00;100737.31;4986899;28;20604;-76
2023/08/21 04:43:47;;;;;;;6.87;6.37;;;;;;;21.78;100.00;100736.34;4986464;28;20562;-75
2023/08/21 04:46:13;;;;;;;7.43;6.80;;;;;;;21.81;100.00;100745.03;4986007;28;20220;-76
2023/08/21 04:48:39;;;;;;;7.67;6.97;;;;;;;21.83;100.00;100744.06;4978670;28;20283;-76
2023/08/21 04:51:04;;;;;;;7.43;6.73;;;;;;;21.84;100.00;100747.53;4984733;28;20622;-76
2023/08/21 04:53:30;;;;;;;8.00;7.20;;;;;;;21.84;100.00;100750.16;4974912;28;20273;-76
2023/08/21 04:55:55;;;;;;;6.50;6.00;;;;;;;21.86;100.00;100746.50;4976352;28;20325;-75
2023/08/21 04:58:20;;;;;;;7.53;6.83;;;;;;;21.89;100.00;100754.28;4981593;28;20728;-75
2023/08/21 05:00:46;;;;;;;6.63;6.13;;;;;;;21.92;100.00;100746.22;4987859;28;20185;-76
2023/08/21 05:03:12;;;;;;;7.23;6.63;;;;;;;21.98;100.00;100755.59;4982229;28;20197;-76
2023/08/21 05:05:37;;;;;;;7.80;6.87;;;;;;;22.01;100.00;100757.22;4981681;28;20332;-76
2023/08/21 05:08:03;;;;;;;7.30;6.70;;;;;;;22.05;100.00;100753.53;4977787;28;20279;-76
2023/08/21 05:10:28;;;;;;;10.17;7.17;;;;;;;22.12;100.00;100762.84;4973475;28;20189;-76
2023/08/21 05:12:57;;;;;;;8.13;6.43;;;;;;;22.20;100.00;100759.81;4978115;28;20758;-77
2023/08/21 05:15:22;;;;;;;8.47;7.23;;;;;;;22.27;100.00;100763.84;4980951;28;20295;-77
2023/08/21 05:17:47;;;;;;;14.17;7.23;;;;;;;22.31;100.00;100761.91;4980788;28;20371;-76
2023/08/21 05:20:14;;;;;;;10.50;6.97;;;;;;;22.35;100.00;100756.41;4995624;28;20693;-76
2023/08/21 05:22:40;;;;;;;9.63;7.33;;;;;;;22.36;100.00;100767.78;4985701;28;20609;-76
2023/08/21 05:25:06;;;;;;;8.07;7.20;;;;;;;22.44;100.00;100772.72;4991760;28;20216;-75
2023/08/21 05:27:31;;;;;;;7.17;6.50;;;;;;;22.53;100.00;100765.19;4990158;28;20246;-75
2023/08/21 05:29:56;;;;;;;6.53;6.03;;;;;;;22.69;100.00;100770.50;5003446;28;20196;-75
2023/08/21 05:32:22;;;;;;;7.17;6.50;;;;;;;22.92;100.00;100760.53;4990990;28;20193;-76
2023/08/21 05:34:47;;;;;;;7.20;6.60;;;;;;;23.27;100.00;100763.09;4984349;28;20192;-77
2023/08/21 05:37:13;;;;;;;7.10;6.43;;;;;;;23.74;100.00;100776.38;4975773;28;20205;-76
2023/08/21 05:39:38;;;;;;;6.40;5.90;;;;;;;24.24;100.00;100771.78;4984458;28;20185;-77
2023/08/21 05:42:04;;;;;;;8.10;6.50;;;;;;;24.62;100.00;100778.38;5000754;28;20284;-76
2023/08/21 05:44:29;;;;;;;6.17;5.57;;;;;;;25.01;100.00;100771.59;4980143;28;20304;-76
2023/08/21 05:46:54;;;;;;;6.53;5.70;;;;;;;25.45;100.00;100769.78;4983917;28;20294;-74
2023/08/21 05:49:20;;;;;;;5.83;5.40;;;;;;;25.83;100.00;100771.72;4987378;28;20209;-76
2023/08/21 05:51:45;;;;;;;5.43;5.03;;;;;;;26.34;100.00;100775.47;4992937;28;20196;-76
2023/08/21 05:54:10;;;;;;;5.67;5.20;;;;;;;26.75;100.00;100771.78;4970225;28;20673;-77
2023/08/21 05:56:36;;;;;;;6.47;5.18;;;;;;;27.15;100.00;100775.28;4988513;28;20269;-75
2023/08/21 05:59:01;;;;;;;7.45;5.97;;;;;;;27.18;100.00;100777.69;4992202;28;20205;-77
2023/08/21 06:01:26;;;;;;;6.40;5.90;;;;;;;27.34;100.00;100774.78;4986170;28;20199;-76
2023/08/21 06:03:51;;;;;;;7.18;6.38;;;;;;;27.03;100.00;100777.00;4977841;28;20269;-75
2023/08/21 06:06:17;;;;;;;7.25;6.45;;;;;;;27.50;100.00;100785.19;4984912;28;20217;-74
2023/08/21 06:08:42;;;;;;;8.13;5.90;;;;;;;27.93;100.00;100790.00;4988292;28;20215;-75
2023/08/21 06:11:07;;;;;;;6.32;5.93;;;;;;;28.10;99.81;100793.22;4981863;28;20187;-76
2023/08/21 06:13:33;;;;;;;7.43;6.35;;;;;;;27.78;98.53;100789.34;4980301;28;20181;-76
2023/08/21 06:15:58;;;;;;;7.20;6.50;;;;;;;27.44;99.69;100783.78;4986611;28;20213;-76
2023/08/21 06:18:23;;;;;;;7.80;5.90;;;;;;;27.37;100.00;100788.69;4979664;28;20217;-77
2023/08/21 06:20:53;;;;;;;6.50;5.90;;;;;;;27.67;100.00;100781.31;4974307;28;20309;-76
2023/08/21 06:23:20;;;;;;;6.55;5.95;;;;;;;27.67;99.45;100794.59;4977958;28;20208;-76
2023/08/21 06:25:47;;;;;;;6.32;5.40;;;;;;;27.94;99.22;100802.31;4980940;28;20270;-76
2023/08/21 06:28:12;;;;;;;6.15;5.63;;;;;;;28.37;98.77;100800.06;4981409;28;20190;-76
2023/08/21 06:30:38;;;;;;;7.30;6.72;;;;;;;28.08;95.43;100803.97;4982340;28;20188;-76
2023/08/21 06:33:03;;;;;;;8.15;6.57;;;;;;;27.53;99.42;100800.91;4974728;28;20642;-76
2023/08/21 06:35:28;;;;;;;7.25;6.55;;;;;;;27.72;99.12;100804.88;4990031;28;20279;-75
2023/08/21 06:37:57;;;;;;;6.50;5.90;;;;;;;28.37;96.03;100800.94;4984195;28;20208;-76
2023/08/21 06:40:22;;;;;;;6.50;5.90;;;;;;;28.32;96.12;100807.59;4975673;28;20185;-76
2023/08/21 06:42:50;;;;;;;8.00;6.93;;;;;;;27.89;98.12;100806.28;4975552;28;20204;-76
2023/08/21 06:45:16;;;;;;;7.53;6.38;;;;;;;28.50;96.41;100813.31;4979567;28;20233;-77
2023/08/21 06:47:41;;;;;;;7.20;6.50;;;;;;;28.84;95.88;100816.91;4980387;28;20216;-77
2023/08/21 06:50:07;;;;;;;6.82;6.22;;;;;;;28.82;95.68;100812.66;4993462;28;20243;-78
2023/08/21 06:52:32;;;;;;;6.50;5.72;;;;;;;29.15;95.20;100814.47;5000686;28;20180;-76
2023/08/21 06:54:57;;;;;;;7.65;6.85;;;;;;;29.39;93.57;100812.66;4986182;28;20288;-76
2023/08/21 06:57:23;;;;;;;6.63;6.03;;;;;;;29.53;93.96;100808.91;4988815;28;20589;-76
2023/08/21 06:59:48;;;;;;;6.50;5.68;;;;;;;29.77;92.96;100814.88;4990010;28;20188;-76
2023/08/21 07:02:13;;;;;;;6.85;6.25;;;;;;;29.61;92.13;100809.97;4986552;28;21909;-76
2023/08/21 07:04:39;;;;;;;6.13;5.60;;;;;;;29.32;93.67;100806.94;4989062;28;20240;-77
2023/08/21 07:07:04;;;;;;;6.70;6.10;;;;;;;29.48;92.74;100814.59;4989688;28;20239;-77
2023/08/21 07:09:30;;;;;;;6.88;6.35;;;;;;;28.88;95.96;100814.88;4990229;28;20300;-77
2023/08/21 07:11:56;;;;;;;7.53;6.82;;;;;;;29.00;94.87;100813.88;5009917;28;20299;-77
2023/08/21 07:14:21;;;;;;;7.43;6.80;;;;;;;29.00;96.32;100813.03;4991150;28;20189;-76
2023/08/21 07:16:47;;;;;;;6.68;6.18;;;;;;;29.33;94.33;100813.97;4993436;28;20200;-76
2023/08/21 07:19:12;;;;;;;6.88;6.28;;;;;;;29.17;94.96;100819.69;4988044;28;20185;-76
2023/08/21 07:21:38;;;;;;;7.28;6.30;;;;;;;29.37;94.59;100815.47;4987680;28;20649;-76
2023/08/21 07:24:03;;;;;;;6.80;6.20;;;;;;;29.62;93.24;100813.47;4992196;28;20211;-77
2023/08/21 07:26:29;;;;;;;7.00;6.40;;;;;;;30.03;92.78;100813.72;4992463;28;20216;-76
2023/08/21 07:28:54;;;;;;;8.70;7.38;;;;;;;29.69;91.83;100817.34;4991382;28;20264;-77
2023/08/21 07:31:20;;;;;;;7.40;6.78;;;;;;;29.46;93.25;100813.88;4989531;28;20192;-77
2023/08/21 07:33:45;;;;;;;6.93;6.30;;;;;;;29.38;93.73;100819.84;4987368;28;20191;-76
2023/08/21 07:36:16;;;;;;;7.45;6.85;;;;;;;29.39;94.24;100818.88;4991474;28;20225;-77
2023/08/21 07:38:42;;;;;;;7.20;6.60;;;;;;;29.81;92.67;100819.00;4980959;28;20221;-76
2023/08/21 07:41:10;;;;;;;7.75;7.05;;;;;;;29.92;92.12;100819.91;4986944;28;20200;-76
2023/08/21 07:43:36;;;;;;;6.47;5.97;;;;;;;30.23;91.95;100817.38;5000559;28;20248;-76
2023/08/21 07:46:03;;;;;;;7.22;6.63;;;;;;;30.19;91.36;100821.28;4983544;28;20216;-76
2023/08/21 07:48:29;;;;;;;7.45;6.78;;;;;;;30.15;90.00;100822.53;5005837;28;20165;-76
2023/08/21 07:50:54;;;;;;;7.05;6.45;;;;;;;30.33;90.70;100820.13;5007644;28;20203;-76
2023/08/21 07:53:20;;;;;;;6.72;6.13;;;;;;;30.41;90.35;100817.66;4985717;28;20197;-76
2023/08/21 07:55:45;;;;;;;7.80;7.10;;;;;;;30.09;90.89;100826.56;4985668;28;20201;-77
2023/08/21 07:58:11;;;;;;;7.45;6.75;;;;;;;30.10;92.26;100837.09;5003235;28;20267;-76
2023/08/21 08:00:36;;;;;;;9.07;7.15;;;;;;;30.12;92.35;100828.97;4978763;28;20200;-76
2023/08/21 08:03:02;;;;;;;7.10;6.10;;;;;;;29.80;92.55;100824.44;4986959;28;20691;-77
2023/08/21 08:05:27;;;;;;;6.68;6.07;;;;;;;30.28;92.21;100820.53;4986898;28;20623;-76
2023/08/21 08:07:52;;;;;;;8.40;7.00;;;;;;;30.19;91.66;100824.81;4989594;28;20181;-77
2023/08/21 08:10:18;;;;;;;7.47;6.78;;;;;;;30.44;90.72;100822.72;4986135;28;20182;-75
2023/08/21 08:12:44;;;;;;;7.47;6.80;;;;;;;30.62;90.67;100823.03;4986108;28;20212;-77
2023/08/21 08:15:10;;;;;;;7.15;6.50;;;;;;;30.80;88.67;100815.25;4983885;28;20283;-75
2023/08/21 08:17:35;;;;;;;7.03;6.43;;;;;;;30.80;89.74;100820.59;4980574;28;20598;-76
2023/08/21 08:20:01;;;;;;;10.55;7.50;;;;;;;30.62;89.96;100811.50;4980169;28;20311;-77
2023/08/21 08:22:26;;;;;;;7.13;6.50;;;;;;;30.59;90.37;100817.09;4988800;28;20191;-76
2023/08/21 08:24:51;;;;;;;7.80;7.10;;;;;;;30.05;91.12;100825.97;4986119;28;20220;-76
2023/08/21 08:27:17;;;;;;;8.70;7.75;;;;;;;29.53;92.91;100819.56;4986506;28;20195;-77
2023/08/21 08:29:42;;;;;;;7.25;6.65;;;;;;;29.84;92.15;100825.88;4985198;28;20716;-76
2023/08/21 08:32:07;;;;;;;7.60;6.95;;;;;;;29.55;93.38;100822.97;4986260;28;20220;-78
2023/08/21 08:34:33;;;;;;;9.48;8.18;;;;;;;29.24;94.87;100822.72;4979596;28;20284;-77
2023/08/21 08:36:58;;;;;;;10.35;8.40;;;;;;;28.70;96.80;100817.09;4997240;28;20216;-77
2023/08/21 08:39:23;;;;;;;9.15;8.35;;;;;;;28.78;96.96;100822.72;4980583;28;20213;-75
2023/08/21 08:42:05;;;;;;;8.75;8.05;;;;;;;28.87;97.20;100816.66;4998203;28;20667;-77
2023/08/21 08:44:34;;;;;;;8.95;8.15;;;;;;;28.68;97.77;100822.53;4985756;28;20196;-76
2023/08/21 08:47:01;;;;;;;9.27;8.38;;;;;;;28.85;98.08;100820.41;4973238;28;20196;-76
2023/08/21 08:49:27;;;;;;;8.73;7.90;;;;;;;28.93;95.81;100822.47;4977626;28;20906;-75
2023/08/21 08:51:54;;;;;;;8.45;7.65;;;;;;;28.87;95.58;100823.81;4986203;28;20189;-76
2023/08/21 08:54:22;;;;;;;9.33;8.57;;;;;;;28.80;96.80;100823.44;4974013;28;20217;-77
2023/08/21 08:56:47;;;;;;;8.57;7.77;;;;;;;28.95;97.18;100815.22;4983713;28;20259;-77
2023/08/21 08:59:14;;;;;;;9.00;7.53;;;;;;;28.85;98.25;100820.41;4986721;28;20189;-77
2023/08/21 09:01:40;;;;;;;9.10;7.97;;;;;;;28.82;96.64;100820.66;4982137;28;20305;-76
2023/08/21 09:04:05;;;;;;;8.50;7.70;;;;;;;28.45;97.56;100811.00;4985660;28;20860;-77
2023/08/21 09:06:32;;;;;;;11.57;8.53;;;;;;;28.68;97.34;100819.88;4973703;28;20231;-77
2023/08/21 09:08:57;;;;;;;9.20;8.30;;;;;;;28.65;97.62;100812.13;4977756;28;20284;-77
2023/08/21 09:11:23;;;;;;;8.97;8.10;;;;;;;28.81;96.18;100813.63;5001608;28;20279;-77
2023/08/21 09:13:50;;;;;;;8.73;7.93;;;;;;;28.78;97.07;100820.06;4987870;28;20184;-78
2023/08/21 09:16:17;;;;;;;12.37;8.63;;;;;;;28.66;96.20;100813.00;4983502;28;20212;-76
2023/08/21 09:18:50;;;;;;;8.93;8.13;;;;;;;28.73;95.53;100808.91;4987412;28;20217;-78
2023/08/21 09:21:19;;;;;;;7.90;7.30;;;;;;;29.03;96.15;100815.44;5002819;28;20249;-77
2023/08/21 09:23:45;;;;;;;8.77;8.07;;;;;;;28.78;94.84;100812.06;4981243;28;20300;-77
2023/08/21 09:26:21;;;;;;;8.33;7.53;;;;;;;29.13;93.86;100802.25;4977193;28;20209;-77
2023/08/21 09:28:47;;;;;;;9.20;8.30;;;;;;;28.98;94.57;100801.63;5001011;28;20231;-79
2023/08/21 09:31:13;;;;;;;7.77;7.17;;;;;;;29.22;94.55;100800.69;4981299;28;20247;-79
2023/08/21 09:33:38;;;;;;;8.10;7.40;;;;;;;29.42;93.24;100805.25;4984670;28;20610;-79
2023/08/21 09:36:04;;;;;;;8.07;7.37;;;;;;;29.61;93.37;100803.78;4985123;28;20213;-79
2023/08/21 09:38:30;;;;;;;8.80;8.00;;;;;;;29.53;93.20;100807.06;4977869;28;20982;-76
2023/08/21 09:40:56;;;;;;;8.77;7.77;;;;;;;29.37;92.42;100798.59;4981130;28;20304;-75
2023/08/21 09:43:23;;;;;;;7.50;6.83;;;;;;;29.66;91.53;100799.75;5000969;28;20181;-76
2023/08/21 09:45:57;;;;;;;7.83;7.10;;;;;;;29.69;91.79;100796.00;4994419;28;20291;-76
2023/08/21 09:48:24;;;;;;;8.27;7.57;;;;;;;29.66;91.49;100785.59;4979716;28;20665;-77
2023/08/21 09:50:51;;;;;;;7.87;7.27;;;;;;;29.77;90.92;100790.88;4978138;28;20207;-76
2023/08/21 09:53:17;;;;;;;10.07;7.68;;;;;;;29.89;91.34;100788.16;4982115;28;20481;-76
2023/08/21 09:55:42;;;;;;;9.52;7.88;;;;;;;29.74;91.22;100791.13;4978379;28;20344;-76
2023/08/21 09:58:09;;;;;;;8.98;7.78;;;;;;;29.98;91.10;100779.44;4979324;28;20562;-76
2023/08/21 10:00:37;;;;;;;9.30;8.45;;;;;;;29.91;90.51;100779.06;4985767;28;20192;-78
2023/08/21 10:03:04;;;;;;;7.90;7.20;;;;;;;29.83;91.18;100780.69;4990309;28;20193;-77
2023/08/21 10:05:38;;;;;;;8.23;7.43;;;;;;;30.06;91.09;100774.28;4993768;28;20223;-77
2023/08/21 10:08:05;;;;;;;8.90;8.05;;;;;;;29.98;90.48;100783.91;4978829;28;20761;-78
2023/08/21 10:10:38;;;;;;;8.55;7.63;;;;;;;29.77;90.61;100772.19;4978425;28;20225;-76
2023/08/21 10:13:05;;;;;;;8.32;7.63;;;;;;;29.87;90.43;100772.28;4978915;28;20212;-77
2023/08/21 10:15:32;;;;;;;8.23;7.57;;;;;;;29.96;90.35;100768.03;4978483;28;20204;-79
2023/08/21 10:17:58;;;;;;;8.27;7.40;;;;;;;29.86;90.49;100764.41;4984073;28;20304;-78
2023/08/21 10:20:25;;;;;;;8.35;7.57;;;;;;;29.91;89.94;100772.88;4983766;28;20197;-77
2023/08/21 10:22:54;;;;;;;8.63;7.75;;;;;;;30.14;89.29;100767.47;4981712;28;20701;-77
2023/08/21 10:25:25;;;;;;;8.07;7.35;;;;;;;30.15;89.06;100766.50;4998645;28;20712;-78
2023/08/21 10:28:03;;;;;;;8.75;7.90;;;;;;;30.13;88.30;100760.44;4986855;28;20181;-77
2023/08/21 10:30:29;;;;;;;8.07;7.38;;;;;;;30.43;88.57;100762.28;4988971;28;20772;-77
2023/08/21 10:32:56;;;;;;;8.13;7.32;;;;;;;30.22;88.36;100762.31;4987178;28;20193;-78
2023/08/21 10:35:24;;;;;;;8.55;7.47;;;;;;;30.46;88.59;100755.88;4988493;28;20907;-79
2023/08/21 10:38:05;;;;;;;8.55;7.82;;;;;;;30.45;89.58;100747.00;5003225;28;20283;-78
2023/08/21 10:40:30;;;;;;;7.85;7.18;;;;;;;30.41;88.83;100746.41;4980826;28;20181;-76
2023/08/21 10:42:55;;;;;;;8.07;7.20;;;;;;;30.41;86.88;100750.91;4999685;28;20200;-78
2023/08/21 10:45:21;;;;;;;8.77;7.18;;;;;;;30.53;88.20;100754.34;4982381;28;21069;-79
2023/08/21 10:47:48;;;;;;;7.32;6.70;;;;;;;30.50;86.56;100742.09;4983289;28;20185;-78
2023/08/21 10:50:14;;;;;;;8.07;7.28;;;;;;;30.30;86.74;100749.16;5002850;28;20217;-78
2023/08/21 10:52:47;;;;;;;7.72;7.13;;;;;;;30.63;87.47;100736.56;5003863;28;20328;-77
2023/08/21 10:55:18;;;;;;;7.60;6.88;;;;;;;30.39;85.87;100742.19;4985161;28;20681;-79
2023/08/21 10:57:46;;;;;;;8.13;7.32;;;;;;;30.63;86.53;100739.22;4991402;28;20284;-77
2023/08/21 11:00:20;;;;;;;8.13;7.45;;;;;;;30.71;85.20;100734.06;4996620;28;20186;-77
2023/08/21 11:02:49;;;;;;;7.55;6.90;;;;;;;30.93;84.70;100734.00;4983578;28;20266;-77
2023/08/21 11:05:15;;;;;;;7.47;6.32;;;;;;;30.90;84.62;100734.28;4985040;28;20801;-78
2023/08/21 11:07:48;;;;;;;7.40;6.80;;;;;;;30.81;84.84;100739.47;4983679;28;20532;-76
2023/08/21 11:10:16;;;;;;;7.38;6.78;;;;;;;30.79;84.93;100736.06;4979863;28;20196;-76
2023/08/21 11:12:52;;;;;;;7.45;6.75;;;;;;;30.99;83.89;100733.47;4984120;28;20205;-75
2023/08/21 11:15:17;;;;;;;8.07;6.43;;;;;;;31.05;80.99;100732.91;4975806;28;20308;-75